HEAT

Assiut International Airport

Assiut, Egypt
METAR HEAT 152000Z 31008KT CAVOK 30/12 Q1008 NOSIG
Observed Flight Rules
Jul-15 @ 20:00 UTC (an hour ago) Visual Flight Rules
Wind Visibility Clouds
310° at 8 knots 10,000+ meters
  • Clear skies
Temperatures Readings
Current 30°C / 86°F
Dewpoint 12°C / 54°F
Humidity 33%
Altimeter 29.76" Hg
Pressure 1008 hPa
Elevation 70
METAR HEAT 152000Z 31008KT CAVOK 30/12 Q1008 NOSIG
Observed Flight Rules
Jul-15 @ 20:00 UTC
(an hour ago)
VFR
Wind Visibility
310° at 8 knots 10,000+ meters
Clouds
  • Clear skies
Temperature Dewpoint
30°C / 86°F 12°C / 54°F
Humidity Altimeter Pressure
33% 29.76" Hg 1008 hPa